Estación Meteorológica Peña el Pijo (Robertgarden) [ 07/12/20 04:39:54 CEST ]

Fecha Hora Presion(HPa) Temp (°C) Humedad % Rocio (°C) Viento ( m/s) Direccion Lluvia 1Hora(mm) Lluvia 24H(mm) LLuvia Total(mm)
2019-Dec-31 01:09:20 1018.200 - - - - N     39.88
2019-Dec-31 02:13:52 1018.200 - - - - N     39.88
2019-Dec-31 03:08:59 1018.200 - - - - N     39.88
2019-Dec-31 04:09:18 1018.000 - - - - N     39.88
2019-Dec-31 05:08:53 1017.800 - - - - N     39.88
2019-Dec-31 06:09:00 1018.000 - - - - N     39.88
2019-Dec-31 07:09:06 1018.400 - - - - N     39.88
2019-Dec-31 08:08:58 1018.100 - - - - N     39.88
2019-Dec-31 09:09:22 1018.800 - - - - N     39.88
2019-Dec-31 10:09:09 1019.500 - - - - N     39.88
2019-Dec-31 11:09:22 1019.800 - - - - N     39.88
2019-Dec-31 12:09:09 1019.500 - - - - N     39.88
2019-Dec-31 13:08:55 1018.200 - - - - N     39.88
2019-Dec-31 14:02:05 1017.500 15.9 36 0.7         39.88
2019-Dec-31 15:01:56 1017.300 16.1 36 0.9         39.88
2019-Dec-31 16:01:48 1017.100 15.5 39 1.6         39.88
2019-Dec-31 17:02:02 1017.400 12.2 47 1.2         39.88
2019-Dec-31 18:01:41 1018.200 9.1 57 1.0         39.88
2019-Dec-31 19:01:54 1018.900 5.2 64 -1.1         39.88
2019-Dec-31 20:01:47 1019.300 3.0 70 -1.9         39.88
2019-Dec-31 21:01:37 1019.400 2.3 74 -1.9         39.88
2019-Dec-31 22:01:42 1019.300 2.4 76 -1.4         39.88
2019-Dec-31 23:01:52 1019.400 1.6 77 -2.0         39.88

Temperatura Máxima:16°    Temperatura Mínima:
Presión Máxima:1019.800 Hpa    Presión Mínima:1017.100 Hpa


Volver